Time;durP1;ratioP1;P1;durP2;ratioP2;P2;SDS_P1;SDS_P2;PMS_P1;PMS_P2;Temp;Humidity;BMP_temperature;BMP_pressure;BME280_temperature;BME280_humidity;BME280_pressure;Samples;Min_cycle;Max_cycle;Signal;HPM_P1;HPM_P2
2023/12/13 00:02:20;;;;;;;;;0.25;0.25;;;;;8.70;87.81;98042.25;5035456;28;8906;-93
2023/12/13 00:04:48;;;;;;;;;0.00;0.00;;;;;8.69;88.32;98043.22;5035865;28;8871;-92
2023/12/13 00:07:16;;;;;;;;;0.00;0.00;;;;;8.69;88.09;98041.44;5036009;28;8832;-92
2023/12/13 00:09:43;;;;;;;;;0.00;0.00;;;;;8.68;87.83;98031.78;5039398;28;8859;-92
2023/12/13 00:12:11;;;;;;;;;1.00;1.00;;;;;8.69;87.83;98030.81;5039455;28;8821;-92
2023/12/13 00:14:39;;;;;;;;;0.00;0.00;;;;;8.70;88.03;98032.47;5039267;28;8845;-92
2023/12/13 00:17:10;;;;;;;;;0.00;0.00;;;;;8.71;88.31;98027.97;5039775;28;9556;-92
2023/12/13 00:19:37;;;;;;;;;1.00;0.00;;;;;8.70;88.06;98035.13;5039568;28;8836;-92
2023/12/13 00:22:05;;;;;;;;;0.50;0.50;;;;;8.72;88.04;98034.94;5039203;28;8925;-91
2023/12/13 00:24:33;;;;;;;;;0.25;0.25;;;;;8.73;87.47;98028.69;5038540;28;9502;-92
2023/12/13 00:27:00;;;;;;;;;0.00;0.00;;;;;8.73;87.91;98026.84;5039190;28;8853;-92
2023/12/13 00:29:29;;;;;;;;;0.00;0.00;;;;;8.75;87.48;98022.19;5038952;28;8841;-92
2023/12/13 00:31:57;;;;;;;;;0.75;0.75;;;;;8.77;87.68;98028.19;5038838;28;8834;-92
2023/12/13 00:34:24;;;;;;;;;0.00;0.00;;;;;8.77;87.49;98024.69;5038836;28;8836;-91
2023/12/13 00:36:53;;;;;;;;;1.00;0.75;;;;;8.75;87.57;98022.19;5038750;28;8864;-92
2023/12/13 00:39:20;;;;;;;;;0.00;0.00;;;;;8.74;87.59;98025.84;5038713;28;8872;-92
2023/12/13 00:41:48;;;;;;;;;0.00;0.00;;;;;8.74;87.76;98025.84;5038379;28;8897;-92
2023/12/13 00:44:16;;;;;;;;;0.50;0.50;;;;;8.73;88.06;98018.88;5038647;28;8833;-92
2023/12/13 00:46:43;;;;;;;;;2.50;1.00;;;;;8.73;87.92;98026.03;5037835;28;8848;-92
2023/12/13 00:49:11;;;;;;;;;1.00;1.00;;;;;8.71;87.73;98030.63;5036910;28;8855;-92
2023/12/13 00:51:39;;;;;;;;;1.50;1.00;;;;;8.65;87.65;98021.50;5037749;28;9611;-92
2023/12/13 00:54:07;;;;;;;;;0.50;0.50;;;;;8.61;87.63;98028.13;5038482;28;8849;-92
2023/12/13 00:56:36;;;;;;;;;1.00;1.00;;;;;8.57;87.91;98029.41;5038850;28;8844;-93
2023/12/13 00:59:04;;;;;;;;;0.50;0.50;;;;;8.55;88.06;98028.72;5038496;28;8863;-92
2023/12/13 01:01:32;;;;;;;;;1.00;1.00;;;;;8.54;87.98;98026.22;5038614;28;8983;-92
2023/12/13 01:04:00;;;;;;;;;1.00;1.00;;;;;8.53;88.03;98024.56;5038042;28;8955;-92
2023/12/13 01:06:27;;;;;;;;;3.50;2.50;;;;;8.53;87.99;98035.19;5038569;28;8832;-92
2023/12/13 01:08:55;;;;;;;;;1.00;1.00;;;;;8.51;88.48;98035.31;5037215;28;8847;-92
2023/12/13 01:11:24;;;;;;;;;3.50;3.00;;;;;8.49;88.04;98042.63;5038354;28;8884;-91
2023/12/13 01:13:52;;;;;;;;;3.00;3.00;;;;;8.49;88.34;98039.97;5038584;28;8868;-91
2023/12/13 01:16:20;;;;;;;;;0.75;0.75;;;;;8.47;88.29;98039.28;5037762;28;8847;-91
2023/12/13 01:18:48;;;;;;;;;2.00;2.00;;;;;8.44;88.08;98042.22;5038430;28;8859;-92
2023/12/13 01:21:16;;;;;;;;;0.50;0.50;;;;;8.44;88.02;98046.72;5037092;28;8840;-91
2023/12/13 01:23:43;;;;;;;;;1.00;1.00;;;;;8.44;87.74;98034.28;5037952;28;10229;-91
2023/12/13 01:26:11;;;;;;;;;1.00;0.50;;;;;8.43;88.47;98029.97;5038175;28;8836;-91
2023/12/13 01:28:39;;;;;;;;;2.00;2.00;;;;;8.41;88.24;98031.94;5037810;28;8848;-91
2023/12/13 01:31:07;;;;;;;;;0.75;0.75;;;;;8.38;87.79;98042.84;5038554;28;9510;-92
2023/12/13 01:33:34;;;;;;;;;0.00;0.00;;;;;8.35;88.21;98037.06;5038080;28;9530;-91
2023/12/13 01:36:03;;;;;;;;;0.25;0.25;;;;;8.32;87.99;98040.84;5038167;28;8829;-91
2023/12/13 01:38:31;;;;;;;;;1.00;1.00;;;;;8.30;88.24;98036.69;5037629;28;8918;-91
2023/12/13 01:40:59;;;;;;;;;3.00;2.50;;;;;8.28;88.15;98036.00;5038038;28;9494;-91
2023/12/13 01:43:40;;;;;;;;;0.25;0.25;;;;;8.25;88.22;98039.78;5037989;28;9025;-91
2023/12/13 01:46:08;;;;;;;;;0.50;0.25;;;;;8.24;88.14;98040.78;5038114;28;8844;-91
2023/12/13 01:48:36;;;;;;;;;0.50;0.50;;;;;8.25;88.37;98026.53;5037955;28;8878;-91
2023/12/13 01:51:04;;;;;;;;;0.50;0.00;;;;;8.29;88.01;98030.53;5038092;28;8872;-91
2023/12/13 01:53:31;;;;;;;;;0.00;0.00;;;;;8.32;88.10;98043.50;5037625;28;8843;-91
2023/12/13 01:55:59;;;;;;;;;1.00;1.00;;;;;8.34;88.18;98038.00;5037747;28;8847;-90
2023/12/13 01:58:27;;;;;;;;;0.00;0.00;;;;;8.35;87.67;98037.88;5037369;28;8832;-91
2023/12/13 02:00:55;;;;;;;;;1.00;0.25;;;;;8.36;88.08;98036.88;5037746;28;8933;-91
2023/12/13 02:03:23;;;;;;;;;3.00;2.00;;;;;8.35;87.84;98032.56;5037506;28;8840;-91
2023/12/13 02:05:50;;;;;;;;;0.00;0.00;;;;;8.36;87.83;98033.41;5037787;28;8848;-91
2023/12/13 02:08:18;;;;;;;;;0.50;0.50;;;;;8.38;87.93;98037.53;5037282;28;8849;-91
2023/12/13 02:10:47;;;;;;;;;1.00;1.00;;;;;8.40;87.75;98030.28;5041638;28;8864;-91
2023/12/13 02:13:15;;;;;;;;;0.00;0.00;;;;;8.45;87.76;98035.13;5047322;28;8828;-91
2023/12/13 02:15:43;;;;;;;;;1.00;1.00;;;;;8.47;87.50;98033.16;5042450;28;8837;-91
2023/12/13 02:18:10;;;;;;;;;0.00;0.00;;;;;8.47;87.14;98027.84;5039688;28;8887;-91
2023/12/13 02:20:38;;;;;;;;;1.00;1.00;;;;;8.45;87.27;98025.31;5042313;28;8853;-91
2023/12/13 02:23:08;;;;;;;;;0.75;0.75;;;;;8.44;87.62;98033.47;5037508;28;8820;-90
2023/12/13 02:25:35;;;;;;;;;1.00;1.00;;;;;8.43;87.84;98029.97;5037346;28;8855;-90
2023/12/13 02:28:03;;;;;;;;;0.75;0.75;;;;;8.42;88.17;98028.31;5037011;28;8844;-91
2023/12/13 02:30:31;;;;;;;;;1.00;1.00;;;;;8.40;87.52;98032.94;5037531;28;8821;-91
2023/12/13 02:32:58;;;;;;;;;1.00;1.00;;;;;8.38;87.82;98021.63;5037367;28;8872;-91
2023/12/13 02:35:26;;;;;;;;;1.00;1.00;;;;;8.36;87.41;98028.91;5037259;28;8918;-91
2023/12/13 02:37:54;;;;;;;;;1.00;1.00;;;;;8.36;87.78;98028.91;5037155;28;8853;-90
2023/12/13 02:40:21;;;;;;;;;1.00;1.00;;;;;8.35;87.71;98027.25;5037170;28;8841;-91
2023/12/13 02:42:49;;;;;;;;;3.25;3.00;;;;;8.34;88.22;98025.59;5037076;28;8816;-90
2023/12/13 02:45:17;;;;;;;;;1.00;1.00;;;;;8.35;88.26;98023.78;5036795;28;8840;-91
2023/12/13 02:47:46;;;;;;;;;1.00;1.00;;;;;8.36;87.80;98028.91;5037278;28;8844;-91
2023/12/13 02:50:14;;;;;;;;;0.00;0.00;;;;;8.36;88.20;98018.31;5037168;28;8855;-91
2023/12/13 02:52:41;;;;;;;;;1.00;1.00;;;;;8.39;87.30;98020.69;5036611;28;8840;-91
2023/12/13 02:55:10;;;;;;;;;0.00;0.00;;;;;8.43;87.52;98021.19;5037195;28;8852;-90
2023/12/13 02:57:38;;;;;;;;;1.00;0.25;;;;;8.46;87.92;98013.75;5036861;28;8856;-91
2023/12/13 03:00:06;;;;;;;;;1.00;1.00;;;;;8.49;87.54;98016.09;5037119;28;8835;-90
2023/12/13 03:02:34;;;;;;;;;0.00;0.00;;;;;8.53;87.38;98012.13;5036974;28;8870;-91
2023/12/13 03:05:03;;;;;;;;;0.00;0.00;;;;;8.54;87.60;98015.63;5036712;28;8875;-91
2023/12/13 03:07:31;;;;;;;;;0.00;0.00;;;;;8.54;87.39;98011.16;5036625;28;8906;-91
2023/12/13 03:09:59;;;;;;;;;0.00;0.00;;;;;8.55;87.42;98012.81;5037099;28;8852;-91
2023/12/13 03:12:27;;;;;;;;;1.00;1.00;;;;;8.54;87.44;98007.66;5036629;28;9538;-91
2023/12/13 03:14:54;;;;;;;;;4.00;2.50;;;;;8.51;87.66;98003.50;5037093;28;8848;-91
2023/12/13 03:17:22;;;;;;;;;2.50;2.50;;;;;8.50;87.17;98003.69;5036513;28;8828;-91
2023/12/13 03:19:50;;;;;;;;;3.00;3.00;;;;;8.50;87.24;98004.47;5036789;28;8837;-91
2023/12/13 03:22:19;;;;;;;;;2.00;2.00;;;;;8.50;87.45;98001.84;5036342;28;8844;-91
2023/12/13 03:24:47;;;;;;;;;1.00;0.00;;;;;8.53;87.42;97995.38;5037172;28;9537;-91
2023/12/13 03:27:14;;;;;;;;;1.00;0.50;;;;;8.57;87.21;97996.72;5036239;28;8879;-91
2023/12/13 03:29:42;;;;;;;;;1.00;1.00;;;;;8.59;87.11;97986.81;5036836;28;8845;-91
2023/12/13 03:32:10;;;;;;;;;5.00;3.75;;;;;8.58;87.09;97991.28;5036139;28;8844;-91
2023/12/13 03:34:37;;;;;;;;;1.50;1.50;;;;;8.57;87.05;97992.25;5036153;28;8837;-91
2023/12/13 03:37:06;;;;;;;;;0.75;0.75;;;;;8.54;87.68;97989.94;5036060;28;8918;-90
2023/12/13 03:39:34;;;;;;;;;6.50;6.50;;;;;8.57;87.23;97984.31;5035924;28;8860;-90
2023/12/13 03:42:02;;;;;;;;;1.00;1.00;;;;;8.58;87.69;97991.28;5036059;28;8832;-90
2023/12/13 03:44:30;;;;;;;;;0.50;0.50;;;;;8.60;87.54;97983.16;5039572;28;8828;-90
2023/12/13 03:46:57;;;;;;;;;1.00;1.00;;;;;8.59;87.44;97982.31;5039924;28;8856;-90
2023/12/13 03:49:25;;;;;;;;;1.00;1.00;;;;;8.60;87.41;97983.97;5039285;28;8864;-91
2023/12/13 03:51:53;;;;;;;;;1.00;1.00;;;;;8.61;87.23;97988.31;5039819;28;8871;-90
2023/12/13 03:54:21;;;;;;;;;0.00;0.00;;;;;8.63;87.23;97982.84;5039992;28;8871;-91
2023/12/13 03:56:48;;;;;;;;;1.50;0.75;;;;;8.64;87.37;97982.69;5039946;28;8833;-91
2023/12/13 03:59:16;;;;;;;;;1.00;1.00;;;;;8.66;87.03;97979.88;5039477;28;8844;-91
2023/12/13 04:01:43;;;;;;;;;2.50;2.50;;;;;8.68;87.19;97984.00;5039435;28;8886;-90
2023/12/13 04:04:11;;;;;;;;;3.50;3.00;;;;;8.70;86.93;97978.56;5039697;28;8856;-91
2023/12/13 04:06:39;;;;;;;;;1.00;1.00;;;;;8.73;87.05;97978.25;5039905;28;9490;-91
2023/12/13 04:09:07;;;;;;;;;4.50;4.00;;;;;8.73;87.01;97979.06;5039641;28;8845;-91
2023/12/13 04:11:35;;;;;;;;;1.00;1.00;;;;;8.76;86.98;97975.28;5039762;28;8881;-91
2023/12/13 04:14:02;;;;;;;;;0.00;0.00;;;;;8.75;86.98;97974.44;5039091;28;8858;-91
2023/12/13 04:16:30;;;;;;;;;0.00;0.00;;;;;8.74;86.96;97967.47;5038453;28;8860;-91
2023/12/13 04:18:57;;;;;;;;;0.50;0.50;;;;;8.73;86.87;97967.66;5038473;28;8844;-90
2023/12/13 04:21:26;;;;;;;;;0.00;0.00;;;;;8.72;87.04;97973.91;5039011;28;8859;-90
2023/12/13 04:23:53;;;;;;;;;0.25;0.25;;;;;8.70;87.00;97966.13;5039306;28;9568;-90
2023/12/13 04:26:21;;;;;;;;;0.00;0.00;;;;;8.68;87.06;97965.44;5038525;28;8828;-90
2023/12/13 04:28:49;;;;;;;;;0.00;0.00;;;;;8.66;87.00;97962.13;5038770;28;8871;-91
2023/12/13 04:31:16;;;;;;;;;0.00;0.00;;;;;8.66;87.04;97967.44;5038802;28;8836;-90
2023/12/13 04:33:44;;;;;;;;;1.00;1.00;;;;;8.66;87.03;97967.44;5039009;28;8864;-91
2023/12/13 04:36:12;;;;;;;;;0.00;0.00;;;;;8.61;87.25;97953.84;5038062;28;8859;-90
2023/12/13 04:38:56;;;;;;;;;0.00;0.00;;;;;8.54;87.18;97958.09;5037531;28;8863;-90
2023/12/13 04:41:23;;;;;;;;;0.00;0.00;;;;;8.45;87.64;97953.72;5036676;28;8851;-90
2023/12/13 04:43:51;;;;;;;;;0.00;0.00;;;;;8.41;87.68;97962.16;5037425;28;8836;-90
2023/12/13 04:46:19;;;;;;;;;0.00;0.00;;;;;8.38;88.30;97968.59;5037544;28;8901;-90
2023/12/13 04:48:46;;;;;;;;;0.00;0.00;;;;;8.39;87.79;97964.97;5037927;28;8849;-90
2023/12/13 04:51:14;;;;;;;;;0.00;0.00;;;;;8.39;87.71;97964.13;5038072;28;8837;-90
2023/12/13 04:53:41;;;;;;;;;0.50;0.50;;;;;8.40;87.75;97973.75;5038057;28;8836;-90
2023/12/13 04:56:09;;;;;;;;;0.00;0.00;;;;;8.39;87.87;97967.63;5039194;28;8872;-91
2023/12/13 04:58:36;;;;;;;;;0.50;0.50;;;;;8.40;87.69;97961.34;5037854;28;8860;-90
2023/12/13 05:01:04;;;;;;;;;0.00;0.00;;;;;8.40;87.68;97966.66;5037458;28;8821;-90
2023/12/13 05:03:32;;;;;;;;;0.00;0.00;;;;;8.41;87.75;97963.00;5037369;28;8930;-90
2023/12/13 05:06:00;;;;;;;;;1.00;1.00;;;;;8.43;87.65;97968.97;5037277;28;8938;-90
2023/12/13 05:08:29;;;;;;;;;0.50;0.50;;;;;8.45;87.92;97966.97;5036912;28;8847;-90
2023/12/13 05:10:58;;;;;;;;;2.25;1.00;;;;;8.48;87.30;97968.50;5036999;28;8837;-90
2023/12/13 05:13:27;;;;;;;;;1.00;1.00;;;;;8.48;87.42;97969.34;5037261;28;8970;-90
2023/12/13 05:15:55;;;;;;;;;0.00;0.00;;;;;8.50;87.33;97964.69;5037929;28;8835;-90
2023/12/13 05:18:22;;;;;;;;;1.50;1.50;;;;;8.52;87.54;97964.56;5037822;28;8982;-91
2023/12/13 05:20:50;;;;;;;;;1.00;1.00;;;;;8.52;87.58;97970.66;5037081;28;9514;-90
2023/12/13 05:23:18;;;;;;;;;0.00;0.00;;;;;8.51;87.42;97958.41;5036640;28;8848;-91
2023/12/13 05:25:46;;;;;;;;;0.75;0.75;;;;;8.52;87.39;97964.56;5037337;28;8844;-90
2023/12/13 05:28:14;;;;;;;;;1.00;1.00;;;;;8.51;87.77;97955.75;5037582;28;8851;-90
2023/12/13 05:30:41;;;;;;;;;0.00;0.00;;;;;8.52;87.58;97951.28;5037235;28;8840;-90
2023/12/13 05:33:09;;;;;;;;;0.50;0.50;;;;;8.52;87.53;97944.16;5037045;28;8856;-92
2023/12/13 05:35:37;;;;;;;;;2.50;0.00;;;;;8.54;87.83;97959.91;5037362;28;8979;-91
2023/12/13 05:38:05;;;;;;;;;0.50;0.50;;;;;8.53;87.72;97956.41;5037062;28;8840;-91
2023/12/13 05:40:32;;;;;;;;;1.00;1.00;;;;;8.54;87.72;97951.97;5036960;28;8852;-91
2023/12/13 05:43:00;;;;;;;;;0.00;0.00;;;;;8.54;87.53;97947.50;5037211;28;8855;-91
2023/12/13 05:45:28;;;;;;;;;0.75;0.25;;;;;8.55;87.56;97948.31;5040507;28;8856;-91
2023/12/13 05:47:56;;;;;;;;;0.75;0.75;;;;;8.54;87.26;97947.50;5036598;28;8868;-92
2023/12/13 05:50:24;;;;;;;;;0.00;0.00;;;;;8.54;87.60;97936.03;5036262;28;8844;-91
2023/12/13 05:52:51;;;;;;;;;1.00;1.00;;;;;8.53;87.49;97948.47;5036360;28;8825;-91
2023/12/13 05:55:21;;;;;;;;;0.50;0.50;;;;;8.53;87.60;97945.81;5036582;28;8839;-90
2023/12/13 05:57:49;;;;;;;;;0.25;0.25;;;;;8.53;87.68;97948.47;5036571;28;8848;-90
2023/12/13 06:00:16;;;;;;;;;0.00;0.00;;;;;8.56;87.78;97952.63;5036799;28;8828;-90
2023/12/13 06:02:44;;;;;;;;;1.00;0.75;;;;;8.56;87.82;97957.94;5036404;28;8851;-91
2023/12/13 06:05:23;;;;;;;;;2.50;1.00;;;;;8.55;87.76;97954.47;5035971;28;8841;-90
2023/12/13 06:07:51;;;;;;;;;1.00;1.00;;;;;8.55;87.87;97951.81;5035750;28;8982;-91
2023/12/13 06:10:19;;;;;;;;;1.00;1.00;;;;;8.54;87.75;97958.09;5036309;28;8982;-91
2023/12/13 06:12:50;;;;;;;;;0.00;0.00;;;;;8.53;87.62;97956.41;5034973;28;8868;-91
2023/12/13 06:15:18;;;;;;;;;0.00;0.00;;;;;8.52;87.73;97965.38;5035568;28;8829;-90
2023/12/13 06:17:46;;;;;;;;;0.25;0.25;;;;;8.52;88.09;97965.38;5035175;28;8883;-91
2023/12/13 06:20:14;;;;;;;;;0.00;0.00;;;;;8.52;88.30;97964.56;5035128;28;8828;-91
2023/12/13 06:22:42;;;;;;;;;1.00;0.00;;;;;8.51;88.10;97963.72;5034868;28;8860;-90
2023/12/13 06:25:09;;;;;;;;;1.00;0.00;;;;;8.51;87.84;97968.19;5034378;28;9533;-91
2023/12/13 06:27:37;;;;;;;;;0.50;0.00;;;;;8.51;87.96;97966.34;5034596;28;8866;-91
2023/12/13 06:30:05;;;;;;;;;0.00;0.00;;;;;8.52;87.67;97967.22;5034061;28;8840;-91
2023/12/13 06:32:32;;;;;;;;;0.00;0.00;;;;;8.51;88.00;97966.34;5033561;28;8852;-91
2023/12/13 06:35:00;;;;;;;;;0.00;0.00;;;;;8.52;88.04;97965.38;5033534;28;8852;-91
2023/12/13 06:37:29;;;;;;;;;1.00;1.00;;;;;8.52;87.97;97969.84;5033185;28;9041;-91
2023/12/13 06:39:57;;;;;;;;;0.00;0.00;;;;;8.53;87.75;97966.22;5033046;28;8849;-91
2023/12/13 06:42:25;;;;;;;;;0.50;0.50;;;;;8.53;87.67;97966.22;5033498;28;8836;-91
2023/12/13 06:44:53;;;;;;;;;0.00;0.00;;;;;8.52;88.10;97957.41;5034031;28;9526;-91
2023/12/13 06:47:20;;;;;;;;;2.00;1.00;;;;;8.52;87.97;97959.25;5033274;28;8853;-91
2023/12/13 06:49:48;;;;;;;;;0.00;0.00;;;;;8.52;87.91;97959.25;5033376;28;8982;-91
2023/12/13 06:52:16;;;;;;;;;0.00;0.00;;;;;8.52;87.72;97960.06;5033191;28;8836;-91
2023/12/13 06:54:46;;;;;;;;;0.50;0.00;;;;;8.51;87.99;97966.34;5033129;28;8836;-91
2023/12/13 06:57:13;;;;;;;;;0.25;0.25;;;;;8.51;88.14;97963.72;5032864;28;8851;-90
2023/12/13 06:59:41;;;;;;;;;0.00;0.00;;;;;8.52;87.67;97972.50;5032619;28;8931;-91
2023/12/13 07:02:09;;;;;;;;;0.50;0.50;;;;;8.51;87.76;97963.72;5031700;28;8841;-90
2023/12/13 07:04:37;;;;;;;;;0.25;0.25;;;;;8.52;88.14;97972.50;5031088;28;8852;-91
2023/12/13 07:07:05;;;;;;;;;1.00;1.00;;;;;8.51;88.11;97971.66;5031599;28;8854;-91
2023/12/13 07:09:33;;;;;;;;;1.00;1.00;;;;;8.54;87.74;97973.19;5031376;28;8871;-91
2023/12/13 07:12:00;;;;;;;;;0.50;0.00;;;;;8.53;87.87;97969.69;5030681;28;8894;-91
2023/12/13 07:14:28;;;;;;;;;0.75;0.25;;;;;8.55;87.90;97970.38;5031423;28;8926;-91
2023/12/13 07:16:56;;;;;;;;;1.00;1.00;;;;;8.57;87.76;97980.81;5031298;28;8848;-91
2023/12/13 07:19:24;;;;;;;;;0.00;0.00;;;;;8.59;88.19;97970.91;5033860;28;8833;-91
2023/12/13 07:21:52;;;;;;;;;1.00;1.00;;;;;8.59;88.10;97981.50;5033919;28;8836;-91
2023/12/13 07:24:20;;;;;;;;;1.00;1.00;;;;;8.58;87.60;97977.19;5035054;28;8864;-91
2023/12/13 07:26:48;;;;;;;;;0.50;0.00;;;;;8.59;87.58;97977.00;5035911;28;8860;-91
2023/12/13 07:29:15;;;;;;;;;0.75;0.00;;;;;8.58;88.01;97975.34;5035879;28;8868;-91
2023/12/13 07:31:43;;;;;;;;;0.00;0.00;;;;;8.59;87.85;97984.97;5036725;28;8871;-92
2023/12/13 07:34:11;;;;;;;;;0.00;0.00;;;;;8.59;87.82;97974.34;5037807;28;8855;-91
2023/12/13 07:36:42;;;;;;;;;0.00;0.00;;;;;8.59;87.53;97976.19;5038109;28;8849;-91
2023/12/13 07:39:10;;;;;;;;;0.00;0.00;;;;;8.57;87.20;97973.69;5037762;28;8934;-91
2023/12/13 07:41:38;;;;;;;;;0.50;0.50;;;;;8.54;88.04;97981.97;5038095;28;8848;-91
2023/12/13 07:44:07;;;;;;;;;0.00;0.00;;;;;8.51;88.00;97973.50;5038289;28;8841;-91
2023/12/13 07:46:36;;;;;;;;;0.00;0.00;;;;;8.48;87.91;97981.75;5037695;28;8849;-91
2023/12/13 07:49:04;;;;;;;;;1.50;1.00;;;;;8.45;88.24;97982.91;5038221;28;8906;-91
2023/12/13 07:51:32;;;;;;;;;0.50;0.50;;;;;8.46;88.35;97984.59;5038322;28;8844;-90
2023/12/13 07:54:00;;;;;;;;;0.00;0.00;;;;;8.49;87.84;97984.25;5038577;28;8840;-91
2023/12/13 07:56:29;;;;;;;;;1.00;1.00;;;;;8.57;87.81;97986.13;5037944;28;8867;-91
2023/12/13 07:58:59;;;;;;;;;0.00;0.00;;;;;8.61;88.02;97993.63;5037168;28;9525;-91
2023/12/13 08:01:27;;;;;;;;;2.50;1.00;;;;;8.67;87.61;97990.31;5037933;28;8860;-91
2023/12/13 08:03:56;;;;;;;;;0.00;0.00;;;;;8.73;87.64;97978.25;5037703;28;8836;-91
2023/12/13 08:06:24;;;;;;;;;0.00;0.00;;;;;8.76;87.56;97981.44;5037953;28;8862;-91
2023/12/13 08:08:52;;;;;;;;;0.25;0.25;;;;;8.78;87.63;97976.78;5037724;28;8861;-91
2023/12/13 08:11:20;;;;;;;;;0.25;0.00;;;;;8.78;87.23;97981.25;5037609;28;8959;-91
2023/12/13 08:13:48;;;;;;;;;1.00;1.00;;;;;8.73;87.70;97981.72;5037864;28;8851;-91
2023/12/13 08:16:16;;;;;;;;;1.00;1.00;;;;;8.68;87.65;97981.38;5035644;28;8840;-91
2023/12/13 08:18:43;;;;;;;;;1.00;1.00;;;;;8.61;87.90;97980.38;5036936;28;8971;-91
2023/12/13 08:21:11;;;;;;;;;3.00;1.00;;;;;8.53;87.68;97974.97;5037356;28;8972;-91
2023/12/13 08:23:39;;;;;;;;;1.00;0.50;;;;;8.49;87.69;97981.59;5037303;28;8852;-91
2023/12/13 08:26:07;;;;;;;;;0.00;0.00;;;;;8.45;88.13;97982.91;5036672;28;8950;-91
2023/12/13 08:28:35;;;;;;;;;0.00;0.00;;;;;8.42;88.54;97979.72;5036186;28;8850;-91
2023/12/13 08:31:03;;;;;;;;;1.00;1.00;;;;;8.41;87.97;97983.38;5035136;28;8856;-91
2023/12/13 08:33:47;;;;;;;;;1.00;1.00;;;;;8.38;87.79;97984.50;5036091;28;8844;-91
2023/12/13 08:36:15;;;;;;;;;0.75;0.75;;;;;8.35;87.75;97986.69;5036023;28;8852;-90
2023/12/13 08:38:44;;;;;;;;;1.00;1.00;;;;;8.34;88.14;97982.31;5036958;28;8864;-91
2023/12/13 08:41:12;;;;;;;;;0.00;0.00;;;;;8.31;88.32;97982.66;5036591;28;8934;-91
2023/12/13 08:43:40;;;;;;;;;0.00;0.00;;;;;8.30;88.23;97992.41;5036573;28;8849;-91
2023/12/13 08:46:08;;;;;;;;;1.00;1.00;;;;;8.32;88.27;97989.63;5035065;28;8856;-91
2023/12/13 08:48:36;;;;;;;;;0.00;0.00;;;;;8.35;88.23;97995.44;5033756;28;9266;-91
2023/12/13 08:51:04;;;;;;;;;0.00;0.00;;;;;8.43;88.02;97992.84;5034914;28;8845;-90
2023/12/13 08:53:32;;;;;;;;;2.00;2.00;;;;;8.53;87.72;97996.19;5034650;28;8859;-91
2023/12/13 08:56:00;;;;;;;;;0.00;0.00;;;;;8.65;87.82;98000.25;5032645;28;9525;-91
2023/12/13 08:58:31;;;;;;;;;0.00;0.00;;;;;8.76;87.44;98002.66;5033606;28;8860;-91
2023/12/13 09:00:59;;;;;;;;;1.00;1.00;;;;;8.84;87.24;98008.00;5032658;28;8856;-91
2023/12/13 09:03:27;;;;;;;;;1.00;1.00;;;;;8.92;86.67;98009.84;5033877;28;8852;-91
2023/12/13 09:05:55;;;;;;;;;1.00;1.00;;;;;8.96;87.12;98012.03;5034889;28;8987;-91
2023/12/13 09:08:23;;;;;;;;;0.50;0.50;;;;;8.99;87.05;98008.22;5034243;28;8860;-91
2023/12/13 09:10:51;;;;;;;;;1.00;1.00;;;;;9.02;86.79;98016.69;5038080;28;8849;-90
2023/12/13 09:13:19;;;;;;;;;0.00;0.00;;;;;9.03;86.87;98018.34;5041879;28;8890;-90
2023/12/13 09:15:47;;;;;;;;;0.75;0.00;;;;;9.05;86.70;98015.56;5041020;28;8852;-91
2023/12/13 09:18:14;;;;;;;;;1.00;1.00;;;;;9.06;86.96;98020.72;5035295;28;8934;-90
2023/12/13 09:20:42;;;;;;;;;0.75;0.75;;;;;9.08;87.04;98021.38;5035095;28;8946;-91
2023/12/13 09:23:10;;;;;;;;;1.00;1.00;;;;;9.09;87.02;98012.41;5034572;28;8840;-90
2023/12/13 09:25:38;;;;;;;;;0.00;0.00;;;;;9.12;87.37;98019.25;5034654;28;9352;-90
2023/12/13 09:28:06;;;;;;;;;2.00;1.00;;;;;9.12;87.01;98022.69;5035201;28;9625;-91
2023/12/13 09:30:34;;;;;;;;;0.00;0.00;;;;;9.12;87.03;98017.41;5034523;28;8860;-90
2023/12/13 09:33:02;;;;;;;;;0.50;0.50;;;;;9.15;86.66;98025.06;5035144;28;8861;-90
2023/12/13 09:35:32;;;;;;;;;0.00;0.00;;;;;9.16;87.23;98021.41;5036007;28;8939;-91
2023/12/13 09:38:00;;;;;;;;;0.50;0.50;;;;;9.18;86.82;98026.56;5035036;28;8996;-91
2023/12/13 09:40:27;;;;;;;;;0.00;0.00;;;;;9.21;86.49;98020.94;5035023;28;8937;-90
2023/12/13 09:42:55;;;;;;;;;0.00;0.00;;;;;9.25;87.25;98016.94;5034995;28;8824;-90
2023/12/13 09:45:23;;;;;;;;;0.50;0.50;;;;;9.31;86.88;98021.63;5034876;28;8872;-91
2023/12/13 09:47:52;;;;;;;;;0.00;0.00;;;;;9.42;86.97;98026.66;5034260;28;8852;-91
2023/12/13 09:50:20;;;;;;;;;0.25;0.00;;;;;9.57;86.63;98030.34;5035511;28;8829;-90
2023/12/13 09:52:48;;;;;;;;;0.00;0.00;;;;;9.73;86.09;98031.19;5034397;28;8853;-91
2023/12/13 09:55:18;;;;;;;;;1.00;0.00;;;;;9.89;85.82;98033.03;5033966;28;8911;-90
2023/12/13 09:57:46;;;;;;;;;0.00;0.00;;;;;10.08;85.51;98032.78;5034167;28;8875;-89
2023/12/13 10:00:14;;;;;;;;;0.75;0.75;;;;;10.39;85.37;98029.25;5035006;28;9533;-91
2023/12/13 10:02:42;;;;;;;;;0.00;0.00;;;;;10.72;83.71;98019.38;5033871;28;8855;-90
2023/12/13 10:05:10;;;;;;;;;0.00;0.00;;;;;10.93;83.57;98025.81;5032790;28;8876;-91
2023/12/13 10:07:38;;;;;;;;;0.00;0.00;;;;;11.15;83.07;98025.06;5031963;28;8848;-90
2023/12/13 10:10:06;;;;;;;;;4.00;2.00;;;;;11.42;82.17;98015.78;5031451;28;8845;-90
2023/12/13 10:12:35;;;;;;;;;0.50;0.50;;;;;11.61;82.49;98021.53;5032422;28;9000;-90
2023/12/13 10:15:05;;;;;;;;;0.00;0.00;;;;;11.67;82.08;98020.03;5032116;28;8837;-90
2023/12/13 10:17:32;;;;;;;;;0.00;0.00;;;;;11.75;82.39;98028.78;5032482;28;8852;-90
2023/12/13 10:20:01;;;;;;;;;0.00;0.00;;;;;11.79;82.05;98027.44;5031728;28;8852;-89
2023/12/13 10:22:29;;;;;;;;;0.50;0.00;;;;;11.69;82.22;98026.81;5030986;28;8845;-91
2023/12/13 10:24:57;;;;;;;;;1.00;1.00;;;;;11.53;82.71;98029.56;5031589;28;8987;-90
2023/12/13 10:27:25;;;;;;;;;0.50;0.50;;;;;11.34;83.35;98032.66;5032766;28;8872;-91
2023/12/13 10:29:53;;;;;;;;;0.00;0.00;;;;;11.19;83.55;98031.72;5031808;28;9007;-90
2023/12/13 10:32:22;;;;;;;;;0.00;0.00;;;;;11.07;84.35;98033.09;5033027;28;8860;-90
2023/12/13 10:34:49;;;;;;;;;0.00;0.00;;;;;10.97;84.25;98040.47;5033998;28;9216;-91
2023/12/13 10:37:19;;;;;;;;;0.50;0.50;;;;;10.89;84.31;98045.81;5032213;28;8867;-90
2023/12/13 10:39:47;;;;;;;;;0.00;0.00;;;;;10.81;84.46;98043.16;5032119;28;8974;-90
2023/12/13 10:42:15;;;;;;;;;3.00;3.00;;;;;10.74;84.66;98042.19;5034876;28;8833;-90
2023/12/13 10:44:43;;;;;;;;;3.00;2.50;;;;;10.69;84.71;98044.50;5034348;28;9510;-90
2023/12/13 10:47:10;;;;;;;;;0.00;0.00;;;;;10.64;85.02;98041.53;5033805;28;8864;-90
2023/12/13 10:49:38;;;;;;;;;0.50;0.50;;;;;10.61;84.90;98041.06;5034565;28;8933;-91
2023/12/13 10:52:06;;;;;;;;;0.50;0.50;;;;;10.59;85.06;98035.88;5034456;28;8863;-90
2023/12/13 10:54:34;;;;;;;;;1.00;0.50;;;;;10.60;85.37;98040.22;5034391;28;8959;-90
2023/12/13 10:57:02;;;;;;;;;1.00;0.25;;;;;10.59;85.27;98037.72;5032875;28;8840;-90
2023/12/13 10:59:30;;;;;;;;;0.00;0.00;;;;;10.58;84.91;98039.56;5031996;28;8844;-90
2023/12/13 11:01:58;;;;;;;;;0.00;0.00;;;;;10.58;85.05;98036.91;5031240;28;8918;-90
2023/12/13 11:04:26;;;;;;;;;0.00;0.00;;;;;10.59;84.48;98038.56;5031275;28;8907;-90
2023/12/13 11:06:54;;;;;;;;;0.00;0.00;;;;;10.58;85.17;98030.72;5031803;28;8852;-90
2023/12/13 11:09:23;;;;;;;;;0.00;0.00;;;;;10.53;84.83;98036.56;5033720;28;8936;-91
2023/12/13 11:11:51;;;;;;;;;0.75;0.75;;;;;10.47;84.80;98034.56;5032922;28;8883;-90
2023/12/13 11:14:20;;;;;;;;;1.00;1.00;;;;;10.40;85.28;98033.56;5033629;28;8864;-91
2023/12/13 11:16:48;;;;;;;;;0.25;0.00;;;;;10.34;85.22;98036.09;5034255;28;8832;-90
2023/12/13 11:19:19;;;;;;;;;1.00;1.00;;;;;10.31;85.13;98039.09;5033919;28;8945;-90
2023/12/13 11:21:47;;;;;;;;;0.50;0.00;;;;;10.32;85.48;98038.09;5033867;28;8977;-90
2023/12/13 11:24:16;;;;;;;;;0.00;0.00;;;;;10.36;85.37;98036.72;5033893;28;8855;-90
2023/12/13 11:26:48;;;;;;;;;0.50;0.50;;;;;10.44;85.54;98042.91;5034939;28;9500;-91
2023/12/13 11:29:16;;;;;;;;;0.00;0.00;;;;;10.53;85.10;98039.22;5034327;28;8875;-90
2023/12/13 11:31:44;;;;;;;;;0.50;0.50;;;;;10.65;84.80;98047.69;5033933;28;8874;-90
2023/12/13 11:34:12;;;;;;;;;0.00;0.00;;;;;10.73;84.82;98032.53;5032957;28;8864;-90
2023/12/13 11:36:39;;;;;;;;;1.00;1.00;;;;;10.78;84.29;98038.16;5032515;28;8987;-91
2023/12/13 11:39:08;;;;;;;;;0.00;0.00;;;;;10.85;84.30;98049.81;5033926;28;8938;-90
2023/12/13 11:41:36;;;;;;;;;3.00;3.00;;;;;10.94;84.50;98048.78;5033473;28;8882;-90
2023/12/13 11:44:05;;;;;;;;;0.00;0.00;;;;;11.02;84.27;98040.78;5031662;28;8860;-91
2023/12/13 11:46:33;;;;;;;;;0.75;0.75;;;;;11.07;83.88;98049.06;5030316;28;8910;-91
2023/12/13 11:49:01;;;;;;;;;0.75;0.75;;;;;11.14;83.77;98044.72;5029284;28;9206;-90
2023/12/13 11:51:30;;;;;;;;;0.00;0.00;;;;;11.08;83.91;98041.94;5030626;28;8848;-91
2023/12/13 11:53:58;;;;;;;;;1.00;1.00;;;;;11.01;84.01;98052.41;5029813;28;8860;-90